Pagrindinis puslapis
METAR-TAF:

METAR-TAF

Oro uostai :

Dar es Salamas, Tanzanija

platuma: 06-52S, ilguma: 039-12E, Aukštis: 55 m

Dabartinis oras

Ataskaita buvo paskelbta 1 valandą ir 51 minutes, ne 22:00 UTC
Vėjas 3 kt iš Vakarų/Šiaurės Vakarų
Temperatūra 25°C
Drėgmė 94%
Slėgis 1012 hPa
Matomumas 10 km arba daugiau
Mažai debesys ne aukštis 1400 ft
Su prošvaistėmis ne aukštis 7000 ft

METAR: HTDA 052200Z 30003KT 9999 FEW014 BKN070 25/24 Q1012 NOSIG

Laikas: 02:51 (23:51 UTC)

Prognozė

Ataskaita buvo paskelbta 12 valandos ir 51 minutes, ne 11:00 UTC
Prognozė galioja nuo 05 metu 12 UTC su 06 metu 18 UTC
Vėjas 5 kt iš Pietų/Pietryčių
Matomumas: 5000 m
Su prošvaistėmis ne aukštis 2000 ft
Mažai debesys ne aukštis 2200 ft, Liūtiniai kamuoliniai debesys.
perkūnija, lietus
Tapsmas
nuo 05 metu 18 UTC su 05 metu 20 UTC
Išsisklaidę debesys ne aukštis 1400 ft
Mažai debesys ne aukštis 1500 ft, Liūtiniai kamuoliniai debesys.

TAF: HTDA 051100Z 0512/0618 16005KT 5000 TSRA BKN020 FEW022CB BECMG 0518/0520 SCT014 FEW015CB

Orai ataskaitas ir orų prognozės (METAR, TAF).

turimą stotys yra geltonos ir raudonos taškus žemėlapyje.

Perkelti pele per norėdami pamatyti stoties vardą.

Tada spustelėkite, norėdami matyti oro stebėjimo ir prognozės.

Norėdami pakeisti žemėlapį: spustelėkite ant žalios mygtukų su juodo kryžiaus žemyn,; žalią mygtuką su brūkšneliu, jei norite nutolinti; arba žalių rodyklių gretimoms žemėlapius.


METAR-TAF: